createdAt,value
2023-02-05T00:01:41.646Z,58.70
2023-02-05T00:04:27.126Z,50.72
2023-02-05T00:07:12.928Z,56.47
2023-02-05T00:09:58.075Z,50.33
2023-02-05T00:12:44.183Z,47.35
2023-02-05T00:15:29.641Z,56.15
2023-02-05T00:18:15.373Z,58.95
2023-02-05T00:21:01.113Z,55.15
2023-02-05T00:23:46.781Z,52.60
2023-02-05T00:26:32.448Z,48.70
2023-02-05T00:29:17.841Z,49.10
2023-02-05T00:32:03.486Z,41.80
2023-02-05T00:34:51.776Z,47.70
2023-02-05T00:37:39.851Z,44.97
2023-02-05T00:40:25.141Z,40.28
2023-02-05T00:43:10.490Z,45.97
2023-02-05T00:45:56.211Z,41.90
2023-02-05T00:48:42.692Z,37.20
2023-02-05T00:51:28.543Z,40.00
2023-02-05T00:54:14.329Z,31.98
2023-02-05T00:57:00.026Z,35.10
2023-02-05T00:59:45.569Z,29.77
2023-02-05T01:02:30.921Z,34.47
2023-02-05T01:05:17.030Z,29.27
2023-02-05T01:08:05.419Z,29.45
2023-02-05T01:10:52.240Z,28.75
2023-02-05T01:13:40.782Z,23.83
2023-02-05T01:16:26.500Z,24.23
2023-02-05T01:19:12.021Z,21.75
2023-02-05T01:21:57.750Z,22.42
2023-02-05T01:24:43.390Z,19.95
2023-02-05T01:27:29.199Z,21.23
2023-02-05T01:30:15.189Z,15.02
2023-02-05T01:33:01.134Z,15.80
2023-02-05T01:35:47.070Z,20.15
2023-02-05T01:38:32.495Z,13.10
2023-02-05T01:41:18.108Z,14.45
2023-02-05T01:44:12.931Z,10.50
2023-02-05T01:46:58.685Z,15.55
2023-02-05T01:49:44.305Z,9.52
2023-02-05T01:52:29.795Z,18.10
2023-02-05T01:55:15.982Z,12.25
2023-02-05T01:58:02.242Z,7.90
2023-02-05T02:00:48.937Z,12.52
2023-02-05T02:03:34.158Z,10.45
2023-02-05T02:06:20.410Z,10.73
2023-02-05T02:09:13.397Z,8.40
2023-02-05T02:11:59.262Z,13.50
2023-02-05T02:14:48.896Z,5.68
2023-02-05T02:17:46.944Z,12.40
2023-02-05T02:20:37.202Z,7.95
2023-02-05T02:23:40.187Z,16.30
2023-02-05T02:26:28.425Z,10.60
2023-02-05T02:29:25.038Z,9.07
2023-02-05T02:32:29.883Z,8.27
2023-02-05T02:35:38.737Z,9.37
2023-02-05T02:38:40.510Z,5.97
2023-02-05T02:41:32.893Z,9.07
2023-02-05T02:44:35.620Z,10.27
2023-02-05T02:47:23.799Z,12.23
2023-02-05T02:50:25.034Z,12.77
2023-02-05T02:53:28.728Z,16.05
2023-02-05T02:56:19.399Z,12.60
2023-02-05T02:59:18.228Z,12.93
2023-02-05T03:02:10.152Z,8.85
2023-02-05T03:05:01.608Z,9.75
2023-02-05T03:08:26.865Z,9.25
2023-02-05T03:11:14.270Z,11.48
2023-02-05T03:14:02.780Z,21.08
2023-02-05T03:16:53.693Z,9.65
2023-02-05T03:19:39.408Z,9.75
2023-02-05T03:22:24.654Z,14.80
2023-02-05T03:25:10.508Z,10.98
2023-02-05T03:27:58.276Z,17.38
2023-02-05T03:31:09.358Z,15.18
2023-02-05T03:34:04.833Z,12.45
2023-02-05T03:37:14.777Z,13.35
2023-02-05T03:40:38.308Z,17.52
2023-02-05T03:43:49.776Z,14.80
2023-02-05T03:46:52.599Z,11.88
2023-02-05T03:50:08.913Z,17.70
2023-02-05T03:53:29.841Z,15.15
2023-02-05T03:56:32.280Z,18.05
2023-02-05T03:59:18.810Z,20.00
2023-02-05T04:02:05.405Z,22.55
2023-02-05T04:04:56.244Z,19.55
2023-02-05T04:07:48.296Z,21.08
2023-02-05T04:10:33.617Z,24.80
2023-02-05T04:13:20.806Z,24.38
2023-02-05T04:16:08.874Z,20.90
2023-02-05T04:18:54.196Z,28.45
2023-02-05T04:21:40.245Z,32.70
2023-02-05T04:24:29.589Z,32.33
2023-02-05T04:27:14.972Z,25.02
2023-02-05T04:30:03.604Z,35.13
2023-02-05T04:32:52.161Z,18.50
2023-02-05T04:35:42.042Z,12.75
2023-02-05T04:38:28.074Z,14.02
2023-02-05T04:41:13.639Z,10.48
2023-02-05T04:43:59.314Z,5.88
2023-02-05T04:46:45.429Z,5.40
2023-02-05T04:49:33.434Z,12.25
2023-02-05T04:52:18.810Z,10.80
2023-02-05T04:55:04.397Z,12.50
2023-02-05T04:57:52.361Z,11.70
2023-02-05T05:00:37.872Z,12.77
2023-02-05T05:03:23.527Z,15.25
2023-02-05T05:06:10.136Z,14.85
2023-02-05T05:08:55.588Z,15.52
2023-02-05T05:11:41.337Z,15.77
2023-02-05T05:14:27.617Z,23.67
2023-02-05T05:17:16.729Z,19.20
2023-02-05T05:20:03.583Z,22.77
2023-02-05T05:22:49.276Z,27.50
2023-02-05T05:25:35.193Z,23.35
2023-02-05T05:28:20.706Z,18.80
2023-02-05T05:31:11.768Z,24.58
2023-02-05T05:33:57.444Z,24.33
2023-02-05T05:36:43.801Z,25.13
2023-02-05T05:39:48.021Z,25.60
2023-02-05T05:42:54.328Z,19.80
2023-02-05T05:45:39.470Z,19.73
2023-02-05T05:48:25.557Z,28.50
2023-02-05T05:51:11.171Z,14.55
2023-02-05T05:53:57.110Z,13.32
2023-02-05T05:56:42.551Z,17.30
2023-02-05T05:59:28.152Z,16.13
2023-02-05T06:02:13.750Z,12.57
2023-02-05T06:04:59.665Z,19.48
2023-02-05T06:07:45.117Z,26.15
2023-02-05T06:10:33.011Z,15.65
2023-02-05T06:13:18.573Z,17.08
2023-02-05T06:16:04.702Z,18.45
2023-02-05T06:18:49.786Z,13.23
2023-02-05T06:21:35.266Z,20.77
2023-02-05T06:24:22.044Z,18.58
2023-02-05T06:27:10.210Z,17.83
2023-02-05T06:29:55.810Z,22.38
2023-02-05T06:32:41.456Z,26.20
2023-02-05T06:35:31.243Z,19.83
2023-02-05T06:38:16.715Z,22.50
2023-02-05T06:41:02.146Z,28.02
2023-02-05T06:43:47.672Z,15.82
2023-02-05T06:46:33.427Z,19.23
2023-02-05T06:49:18.742Z,18.67
2023-02-05T06:52:05.044Z,17.30
2023-02-05T06:54:50.405Z,22.38
2023-02-05T06:57:41.894Z,20.52
2023-02-05T07:00:27.663Z,20.55
2023-02-05T07:03:12.892Z,23.23
2023-02-05T07:06:05.648Z,25.67
2023-02-05T07:08:51.828Z,14.80
2023-02-05T07:11:37.113Z,22.38
2023-02-05T07:14:22.450Z,23.88
2023-02-05T07:17:11.193Z,32.72
2023-02-05T07:19:56.413Z,28.52
2023-02-05T07:22:41.966Z,30.05
2023-02-05T07:25:27.373Z,31.08
2023-02-05T07:28:12.897Z,29.88
2023-02-05T07:31:05.209Z,25.55
2023-02-05T07:33:50.841Z,35.30
2023-02-05T07:36:36.587Z,28.77
2023-02-05T07:39:21.734Z,32.95
2023-02-05T07:42:13.066Z,23.85
2023-02-05T07:45:07.853Z,35.78
2023-02-05T07:47:53.894Z,23.45
2023-02-05T07:50:45.293Z,34.70
2023-02-05T07:53:30.990Z,38.13
2023-02-05T07:56:17.706Z,21.08
2023-02-05T07:59:03.352Z,38.22
2023-02-05T08:01:48.979Z,35.67
2023-02-05T08:04:34.393Z,28.85
2023-02-05T08:07:19.915Z,36.85
2023-02-05T08:10:05.791Z,38.38
2023-02-05T08:12:51.145Z,34.45
2023-02-05T08:15:39.148Z,33.60
2023-02-05T08:18:25.522Z,33.28
2023-02-05T08:21:10.875Z,26.65
2023-02-05T08:23:58.572Z,35.90
2023-02-05T08:26:44.837Z,32.53
2023-02-05T08:29:30.227Z,38.35
2023-02-05T08:32:24.064Z,33.75
2023-02-05T08:35:09.703Z,42.28
2023-02-05T08:37:55.197Z,41.53
2023-02-05T08:40:41.650Z,34.67
2023-02-05T08:43:27.336Z,42.88
2023-02-05T08:46:14.732Z,38.83
2023-02-05T08:49:03.388Z,42.85
2023-02-05T08:51:48.819Z,37.50
2023-02-05T08:54:34.414Z,38.83
2023-02-05T08:57:20.040Z,43.88
2023-02-05T09:00:07.894Z,41.05
2023-02-05T09:02:53.633Z,35.17
2023-02-05T09:05:39.767Z,36.92
2023-02-05T09:08:27.111Z,47.10
2023-02-05T09:11:15.641Z,40.25
2023-02-05T09:14:01.009Z,45.92
2023-02-05T09:16:46.663Z,45.85
2023-02-05T09:19:39.460Z,41.75
2023-02-05T09:22:26.860Z,43.22
2023-02-05T09:25:12.195Z,43.95
2023-02-05T09:27:57.692Z,42.05
2023-02-05T09:30:45.328Z,42.47
2023-02-05T09:33:30.928Z,39.75
2023-02-05T09:36:21.334Z,40.13
2023-02-05T09:39:17.453Z,41.35
2023-02-05T09:42:38.345Z,43.50
2023-02-05T09:45:38.325Z,35.22
2023-02-05T09:48:57.159Z,40.58
2023-02-05T09:51:52.895Z,39.15
2023-02-05T09:54:44.489Z,36.70
2023-02-05T09:57:40.143Z,35.25
2023-02-05T10:00:45.340Z,48.25
2023-02-05T10:03:47.010Z,30.55
2023-02-05T10:07:03.564Z,48.72
2023-02-05T10:10:22.479Z,33.80
2023-02-05T10:13:24.186Z,37.83
2023-02-05T10:17:00.115Z,33.25
2023-02-05T10:20:10.146Z,38.70
2023-02-05T10:23:16.800Z,32.78
2023-02-05T10:26:12.409Z,36.05
2023-02-05T10:29:17.033Z,40.63
2023-02-05T10:32:26.113Z,32.22
2023-02-05T10:35:26.621Z,37.25
2023-02-05T10:38:26.165Z,39.38
2023-02-05T10:41:22.759Z,32.15
2023-02-05T10:44:19.556Z,30.65
2023-02-05T10:47:16.915Z,33.22
2023-02-05T10:50:29.161Z,38.65
2023-02-05T10:53:19.173Z,41.90
2023-02-05T10:56:08.952Z,36.95
2023-02-05T10:59:02.544Z,40.90
2023-02-05T11:01:48.745Z,37.15
2023-02-05T11:05:04.139Z,50.63
2023-02-05T11:07:51.773Z,33.38
2023-02-05T11:10:38.064Z,38.95
2023-02-05T11:13:28.082Z,38.05
2023-02-05T11:16:13.721Z,31.83
2023-02-05T11:19:01.233Z,30.60
2023-02-05T11:21:58.705Z,35.17
2023-02-05T11:24:45.781Z,36.45
2023-02-05T11:27:33.084Z,41.40
2023-02-05T11:30:53.968Z,32.97
2023-02-05T11:33:39.494Z,25.23
2023-02-05T11:36:25.675Z,30.63
2023-02-05T11:39:29.345Z,39.30
2023-02-05T11:42:21.352Z,37.25
2023-02-05T11:45:19.709Z,34.70
2023-02-05T11:48:34.036Z,36.92
2023-02-05T11:51:38.364Z,37.65
2023-02-05T11:54:31.731Z,27.85
2023-02-05T11:57:20.089Z,29.58
2023-02-05T12:00:12.914Z,28.55
2023-02-05T12:03:20.536Z,32.30
2023-02-05T12:06:18.281Z,20.45
2023-02-05T12:09:04.629Z,19.73
2023-02-05T12:12:04.135Z,23.52
2023-02-05T12:15:19.668Z,25.35
2023-02-05T12:18:40.778Z,28.70
2023-02-05T12:22:06.094Z,22.38
2023-02-05T12:25:26.900Z,20.23
2023-02-05T12:28:46.948Z,24.95
2023-02-05T12:31:57.038Z,20.77
2023-02-05T12:35:01.678Z,23.42
2023-02-05T12:37:52.481Z,27.23
2023-02-05T12:41:01.858Z,30.55
2023-02-05T12:43:49.767Z,22.02
2023-02-05T12:47:09.083Z,24.25
2023-02-05T12:50:10.648Z,31.33
2023-02-05T12:53:33.781Z,20.20
2023-02-05T12:56:37.694Z,18.38
2023-02-05T12:59:45.878Z,18.85
2023-02-05T13:03:03.280Z,23.00
2023-02-05T13:05:53.585Z,25.08
2023-02-05T13:08:48.110Z,25.90
2023-02-05T13:11:45.108Z,29.10
2023-02-05T13:14:39.408Z,21.73
2023-02-05T13:17:28.281Z,26.35
2023-02-05T13:20:45.065Z,33.65
2023-02-05T13:23:51.808Z,24.15
2023-02-05T13:27:04.215Z,23.50
2023-02-05T13:29:53.977Z,22.27
2023-02-05T13:32:40.515Z,23.52
2023-02-05T13:35:28.176Z,21.23
2023-02-05T13:38:41.847Z,23.85
2023-02-05T13:41:48.806Z,19.23
2023-02-05T13:44:54.953Z,23.65
2023-02-05T13:47:52.254Z,31.67
2023-02-05T13:50:49.401Z,24.92
2023-02-05T13:53:49.921Z,27.73
2023-02-05T13:56:58.193Z,18.48
2023-02-05T13:59:51.441Z,29.25
2023-02-05T14:02:43.975Z,21.63
2023-02-05T14:05:38.903Z,25.45
2023-02-05T14:08:35.049Z,30.67
2023-02-05T14:11:21.166Z,21.35
2023-02-05T14:14:27.043Z,22.67
2023-02-05T14:17:31.116Z,21.63
2023-02-05T14:20:25.846Z,26.45
2023-02-05T14:23:46.270Z,23.48
2023-02-05T14:26:51.876Z,32.53
2023-02-05T14:29:43.035Z,27.50
2023-02-05T14:32:28.626Z,25.17
2023-02-05T14:35:40.187Z,29.95
2023-02-05T14:38:34.077Z,24.25
2023-02-05T14:41:36.758Z,25.35
2023-02-05T14:44:27.087Z,29.33
2023-02-05T14:47:28.824Z,23.00
2023-02-05T14:50:40.599Z,27.52
2023-02-05T14:53:29.886Z,31.35
2023-02-05T14:56:39.472Z,32.63
2023-02-05T14:59:39.878Z,32.30
2023-02-05T15:02:46.822Z,30.20
2023-02-05T15:05:37.864Z,37.80
2023-02-05T15:08:35.047Z,31.58
2023-02-05T15:11:45.148Z,32.33
2023-02-05T15:14:50.197Z,35.25
2023-02-05T15:17:44.335Z,38.80
2023-02-05T15:20:33.901Z,32.70
2023-02-05T15:23:23.288Z,27.40
2023-02-05T15:26:39.157Z,37.88
2023-02-05T15:29:29.204Z,32.05
2023-02-05T15:32:36.086Z,34.47
2023-02-05T15:35:27.096Z,33.17
2023-02-05T15:38:33.937Z,38.58
2023-02-05T15:41:21.417Z,35.83
2023-02-05T15:44:37.644Z,26.88
2023-02-05T15:47:25.129Z,30.70
2023-02-05T15:50:14.909Z,43.90
2023-02-05T15:53:01.019Z,53.33
2023-02-05T15:55:51.565Z,45.35
2023-02-05T15:58:37.724Z,45.72
2023-02-05T16:01:30.507Z,47.55
2023-02-05T16:04:41.909Z,44.08
2023-02-05T16:07:32.698Z,42.25
2023-02-05T16:10:22.727Z,38.53
2023-02-05T16:13:16.743Z,41.63
2023-02-05T16:16:09.643Z,44.08
2023-02-05T16:18:59.096Z,41.08
2023-02-05T16:21:52.602Z,42.83
2023-02-05T16:24:42.629Z,45.70
2023-02-05T16:27:46.208Z,42.35
2023-02-05T16:30:40.931Z,45.83
2023-02-05T16:33:38.438Z,46.50
2023-02-05T16:36:31.057Z,37.42
2023-02-05T16:39:22.787Z,55.20
2023-02-05T16:42:44.613Z,53.55
2023-02-05T16:45:31.178Z,50.67
2023-02-05T16:48:25.424Z,51.67
2023-02-05T16:51:33.613Z,49.08
2023-02-05T16:54:18.677Z,53.00
2023-02-05T16:57:16.651Z,48.05
2023-02-05T17:00:18.501Z,55.55
2023-02-05T17:03:41.058Z,43.05
2023-02-05T17:06:34.459Z,44.60
2023-02-05T17:09:41.178Z,40.13
2023-02-05T17:12:40.000Z,51.40
2023-02-05T17:15:28.899Z,53.63
2023-02-05T17:18:32.087Z,40.30
2023-02-05T17:21:23.836Z,63.40
2023-02-05T17:24:09.597Z,42.42
2023-02-05T17:26:56.640Z,46.28
2023-02-05T17:29:42.266Z,48.38
2023-02-05T17:32:29.384Z,46.40
2023-02-05T17:35:16.326Z,39.78
2023-02-05T17:38:01.826Z,36.50
2023-02-05T17:40:47.767Z,55.65
2023-02-05T17:43:33.347Z,55.10
2023-02-05T17:46:19.131Z,53.83
2023-02-05T17:49:04.830Z,54.72
2023-02-05T17:51:50.176Z,44.17
2023-02-05T17:54:36.465Z,57.83
2023-02-05T17:57:23.310Z,41.45
2023-02-05T18:00:22.902Z,45.40
2023-02-05T18:03:08.319Z,50.75
2023-02-05T18:05:53.897Z,49.95
2023-02-05T18:08:42.296Z,58.55
2023-02-05T18:11:27.887Z,52.00
2023-02-05T18:14:13.083Z,54.47
2023-02-05T18:16:58.588Z,50.80
2023-02-05T18:19:44.253Z,45.67
2023-02-05T18:22:30.200Z,50.50
2023-02-05T18:25:16.047Z,45.22
2023-02-05T18:28:01.413Z,53.00
2023-02-05T18:30:54.809Z,55.22
2023-02-05T18:33:40.214Z,50.08
2023-02-05T18:39:29.465Z,51.88
2023-02-05T18:45:21.676Z,59.05
2023-02-05T18:48:10.512Z,58.58
2023-02-05T18:50:55.934Z,65.68
2023-02-05T18:53:43.184Z,56.33
2023-02-05T18:56:28.888Z,53.53
2023-02-05T18:59:17.929Z,56.35
2023-02-05T19:02:03.491Z,54.78
2023-02-05T19:04:55.571Z,61.92
2023-02-05T19:07:41.190Z,61.35
2023-02-05T19:10:26.598Z,58.10
2023-02-05T19:13:12.013Z,52.88
2023-02-05T19:16:04.454Z,52.40
2023-02-05T19:18:50.029Z,55.83
2023-02-05T19:21:46.539Z,59.72
2023-02-05T19:24:32.640Z,66.90
2023-02-05T19:27:18.926Z,60.72
2023-02-05T19:30:06.153Z,48.78
2023-02-05T19:32:52.139Z,58.15
2023-02-05T19:35:39.384Z,47.78
2023-02-05T19:38:25.047Z,57.20
2023-02-05T19:41:19.279Z,46.40
2023-02-05T19:44:07.373Z,44.25
2023-02-05T19:46:52.812Z,45.10
2023-02-05T19:49:40.098Z,60.13
2023-02-05T19:52:28.621Z,66.50
2023-02-05T19:55:14.430Z,56.80
2023-02-05T19:58:00.415Z,63.88
2023-02-05T20:00:48.126Z,55.42
2023-02-05T20:03:34.023Z,56.20
2023-02-05T20:06:21.517Z,47.40
2023-02-05T20:09:10.672Z,71.60
2023-02-05T20:11:56.247Z,53.88
2023-02-05T20:14:42.132Z,61.58
2023-02-05T20:17:28.277Z,56.05
2023-02-05T20:20:24.906Z,74.60
2023-02-05T20:23:18.093Z,64.32
2023-02-05T20:26:04.258Z,57.97
2023-02-05T20:29:11.770Z,50.33
2023-02-05T20:31:58.474Z,64.85
2023-02-05T20:34:44.785Z,54.83
2023-02-05T20:37:30.236Z,56.10
2023-02-05T20:40:22.693Z,80.18
2023-02-05T20:43:12.376Z,63.47
2023-02-05T20:46:03.933Z,56.10
2023-02-05T20:48:49.933Z,49.65
2023-02-05T20:51:36.235Z,72.38
2023-02-05T20:54:25.549Z,60.25
2023-02-05T20:57:11.098Z,56.80
2023-02-05T20:59:56.709Z,59.25
2023-02-05T21:02:42.181Z,63.15
2023-02-05T21:05:27.662Z,61.25
2023-02-05T21:08:13.298Z,81.22
2023-02-05T21:10:58.868Z,62.67
2023-02-05T21:13:45.668Z,54.95
2023-02-05T21:16:33.813Z,64.28
2023-02-05T21:19:19.584Z,68.38
2023-02-05T21:22:05.193Z,69.25
2023-02-05T21:24:50.593Z,54.47
2023-02-05T21:27:37.062Z,60.22
2023-02-05T21:30:22.160Z,67.82
2023-02-05T21:33:07.741Z,72.50
2023-02-05T21:35:53.160Z,66.85
2023-02-05T21:38:40.778Z,64.47
2023-02-05T21:41:27.072Z,76.13
2023-02-05T21:44:12.526Z,67.47
2023-02-05T21:46:57.841Z,66.28
2023-02-05T21:49:43.451Z,67.05
2023-02-05T21:52:29.287Z,62.95
2023-02-05T21:55:14.569Z,57.42
2023-02-05T21:58:00.009Z,64.75
2023-02-05T22:00:48.846Z,59.67
2023-02-05T22:03:34.293Z,53.38
2023-02-05T22:06:20.830Z,54.08
2023-02-05T22:09:11.057Z,67.10
2023-02-05T22:12:02.538Z,67.10
2023-02-05T22:14:48.579Z,60.70
2023-02-05T22:17:33.885Z,51.70
2023-02-05T22:20:22.570Z,62.53
2023-02-05T22:23:09.530Z,56.25
2023-02-05T22:25:55.089Z,59.95
2023-02-05T22:28:55.482Z,55.00
2023-02-05T22:31:41.658Z,54.25
2023-02-05T22:34:27.658Z,67.47
2023-02-05T22:37:13.011Z,59.63
2023-02-05T22:39:58.796Z,57.72
2023-02-05T22:42:44.281Z,56.90
2023-02-05T22:45:34.168Z,46.55
2023-02-05T22:48:19.909Z,58.88
2023-02-05T22:51:08.312Z,65.10
2023-02-05T22:53:56.343Z,55.50
2023-02-05T22:56:41.796Z,67.65
2023-02-05T22:59:27.406Z,61.55
2023-02-05T23:02:13.176Z,66.43
2023-02-05T23:04:58.778Z,57.15
2023-02-05T23:07:48.547Z,57.38
2023-02-05T23:10:34.104Z,49.80
2023-02-05T23:13:19.800Z,47.67
2023-02-05T23:16:18.243Z,55.08
2023-02-05T23:19:10.942Z,59.83
2023-02-05T23:21:56.505Z,53.25
2023-02-05T23:24:44.864Z,45.30
2023-02-05T23:27:32.473Z,50.80
2023-02-05T23:30:18.395Z,58.17
2023-02-05T23:33:04.098Z,59.42
2023-02-05T23:35:49.506Z,37.00
2023-02-05T23:38:35.016Z,57.88
2023-02-05T23:41:35.657Z,65.43
2023-02-05T23:44:22.131Z,48.13
2023-02-05T23:47:10.643Z,50.20
2023-02-05T23:49:56.116Z,52.92
2023-02-05T23:52:41.718Z,49.72
2023-02-05T23:55:27.175Z,50.22
2023-02-05T23:58:13.489Z,50.20
